Terminal Aerodrome Forecast
Issued by NWS Upton, NY

Current Version | Previous Version | Text Only | Print | Product List | Glossary On
Versions: 1 2 3 4 5 6 7 8 9 10 11 12 13 14 15 16 17 18 19 20 21 22 23 24 25 26 27 28 29 30 31 32 33 34
000
FTUS41 KOKX 220520
TAFLGA
TAF
KLGA 220520Z 2206/2312 36012G18KT P6SM VCSH BKN040
     FM220700 01010KT P6SM VCSH BKN040
     FM221500 03012KT P6SM VCSH SCT015 BKN030
     FM221800 03012G18KT 3SM -RA OVC015
     FM222100 03012G18KT 3SM -RAPL OVC007
     FM230000 03012KT 6SM -DZ OVC007
     FM230600 03010KT P6SM SCT007 OVC015=

USA.gov is the U.S. government's official web portal to all federal, state and local government web resources and services.